^^
Station Historical Data
Daily Summary for December 7, 2017 Units:  Both    English   Metric
« Previous Day
Next Day »
Daily Weekly Monthly Yearly Custom
  High: Low: Average:
Temperature: 84.0 °F /  28.9 °C 68.7 °F /  20.4 °C 76 °F /  24.4 °C
Dew Point: 53.6 °F /  12 °C 42.1 °F /  5.6 °C 48.9 °F /  9.4 °C
Humidity: 53% 29% 39%
Wind Speed: 19.9mph /  32km/h - -15.7mph /  -25.3km/h
Wind Gust: 25.0mph /  40.2km/h - -
Wind- -
Pressure: 30.29 in /  1025.6 hPa 30.14 in /  1020.5 hPa -
Precipitation: 0.00 in /  0 mm    
Historical Graphs
 
 
Tabular Data for December 7, 2017
Time Temperature Dew Point Pressure Wind Wind Speed Wind Gust Humidity Rainfall Rate (Hourly) solar Conditions
08:15 69.6 °F /  20.9 °C 42.3 °F /  5.7 °C 30.26in /  1024.6hPa North -999.9mph /  -1609.1km/h -999.0mph /  -1607.7km/h 37% 0.00in /  0mm meteobridge W/m2
08:21 69.4 °F /  20.8 °C 42.8 °F /  6 °C 30.26in /  1024.6hPa North 2.9mph /  4.7km/h 6.0mph /  9.7km/h 38% 0.00in /  0mm meteobridge W/m2
08:27 69.4 °F /  20.8 °C 42.1 °F /  5.6 °C 30.27in /  1024.9hPa NNE 13.0mph /  20.9km/h 13.0mph /  20.9km/h 37% 0.00in /  0mm meteobridge W/m2
08:33 69.3 °F /  20.7 °C 42.6 °F /  5.9 °C 30.27in /  1024.9hPa NNE 4.0mph /  6.4km/h 9.0mph /  14.5km/h 38% 0.00in /  0mm meteobridge W/m2
08:39 69.4 °F /  20.8 °C 43.3 °F /  6.3 °C 30.28in /  1025.3hPa NNE 6.9mph /  11.1km/h 9.0mph /  14.5km/h 39% 0.00in /  0mm meteobridge W/m2
08:45 69.6 °F /  20.9 °C 44.2 °F /  6.8 °C 30.28in /  1025.3hPa NNW 6.0mph /  9.7km/h 10.0mph /  16.1km/h 40% 0.00in /  0mm meteobridge W/m2
08:52 70.0 °F /  21.1 °C 44.6 °F /  7 °C 30.28in /  1025.3hPa NE 2.0mph /  3.2km/h 9.0mph /  14.5km/h 40% 0.00in /  0mm meteobridge W/m2
08:58 70.3 °F /  21.3 °C 44.2 °F /  6.8 °C 30.28in /  1025.3hPa NNE 4.9mph /  7.9km/h 10.0mph /  16.1km/h 39% 0.00in /  0mm meteobridge W/m2
09:04 71.4 °F /  21.9 °C 45.1 °F /  7.3 °C 30.28in /  1025.3hPa North 11.0mph /  17.7km/h 11.0mph /  17.7km/h 39% 0.00in /  0mm meteobridge W/m2
09:10 72.1 °F /  22.3 °C 46.4 °F /  8 °C 30.28in /  1025.3hPa NNE 8.9mph /  14.3km/h 11.0mph /  17.7km/h 40% 0.00in /  0mm meteobridge W/m2
09:16 72.5 °F /  22.5 °C 46.8 °F /  8.2 °C 30.28in /  1025.3hPa North 11.0mph /  17.7km/h 13.0mph /  20.9km/h 40% 0.00in /  0mm meteobridge W/m2
09:22 72.3 °F /  22.4 °C 48.0 °F /  8.9 °C 30.28in /  1025.3hPa NNE 4.9mph /  7.9km/h 17.0mph /  27.4km/h 42% 0.00in /  0mm meteobridge W/m2
09:28 72.3 °F /  22.4 °C 49.1 °F /  9.5 °C 30.29in /  1025.6hPa North 8.9mph /  14.3km/h 17.0mph /  27.4km/h 44% 0.00in /  0mm meteobridge W/m2
09:34 72.1 °F /  22.3 °C 49.6 °F /  9.8 °C 30.28in /  1025.3hPa North 6.0mph /  9.7km/h 16.0mph /  25.7km/h 45% 0.00in /  0mm meteobridge W/m2
09:40 72.3 °F /  22.4 °C 50.4 °F /  10.2 °C 30.28in /  1025.3hPa NNE 14.1mph /  22.7km/h 14.1mph /  22.7km/h 46% 0.00in /  0mm meteobridge W/m2
09:46 73.0 °F /  22.8 °C 50.4 °F /  10.2 °C 30.28in /  1025.3hPa North 4.9mph /  7.9km/h 11.0mph /  17.7km/h 45% 0.00in /  0mm meteobridge W/m2
09:52 73.4 °F /  23 °C 50.7 °F /  10.4 °C 30.28in /  1025.3hPa NNE 13.0mph /  20.9km/h 18.0mph /  29km/h 45% 0.00in /  0mm meteobridge W/m2
09:59 72.7 °F /  22.6 °C 50.2 °F /  10.1 °C 30.28in /  1025.3hPa North 6.0mph /  9.7km/h 12.0mph /  19.3km/h 45% 0.00in /  0mm meteobridge W/m2
10:07 73.6 °F /  23.1 °C 50.9 °F /  10.5 °C 30.28in /  1025.3hPa NW 6.0mph /  9.7km/h 7.0mph /  11.3km/h 45% 0.00in /  0mm meteobridge W/m2
10:29 75.0 °F /  23.9 °C 51.1 °F /  10.6 °C 30.28in /  1025.3hPa NE 6.0mph /  9.7km/h 13.0mph /  20.9km/h 43% 0.00in /  0mm meteobridge W/m2
10:35 74.7 °F /  23.7 °C 50.7 °F /  10.4 °C 30.28in /  1025.3hPa NNE 4.0mph /  6.4km/h 10.0mph /  16.1km/h 43% 0.00in /  0mm meteobridge W/m2
10:41 74.8 °F /  23.8 °C 50.9 °F /  10.5 °C 30.27in /  1024.9hPa NE 11.0mph /  17.7km/h 11.0mph /  17.7km/h 43% 0.00in /  0mm meteobridge W/m2
10:47 75.4 °F /  24.1 °C 50.0 °F /  10 °C 30.27in /  1024.9hPa NNW 12.1mph /  19.5km/h 14.0mph /  22.5km/h 41% 0.00in /  0mm meteobridge W/m2
10:54 75.4 °F /  24.1 °C 50.0 °F /  10 °C 30.27in /  1024.9hPa NNW 6.9mph /  11.1km/h 12.0mph /  19.3km/h 41% 0.00in /  0mm meteobridge W/m2
11:00 75.9 °F /  24.4 °C 50.5 °F /  10.3 °C 30.27in /  1024.9hPa North 2.9mph /  4.7km/h 13.0mph /  20.9km/h 41% 0.00in /  0mm meteobridge W/m2
11:06 76.6 °F /  24.8 °C 49.1 °F /  9.5 °C 30.27in /  1024.9hPa North 10.1mph /  16.3km/h 16.0mph /  25.7km/h 38% 0.00in /  0mm meteobridge W/m2
11:12 76.5 °F /  24.7 °C 49.6 °F /  9.8 °C 30.27in /  1024.9hPa NNE 4.9mph /  7.9km/h 7.0mph /  11.3km/h 39% 0.00in /  0mm meteobridge W/m2
11:18 77.4 °F /  25.2 °C 49.8 °F /  9.9 °C 30.27in /  1024.9hPa NNE 6.0mph /  9.7km/h 10.0mph /  16.1km/h 38% 0.00in /  0mm meteobridge W/m2
11:25 78.4 °F /  25.8 °C 50.0 °F /  10 °C 30.27in /  1024.9hPa North 6.0mph /  9.7km/h 14.0mph /  22.5km/h 37% 0.00in /  0mm meteobridge W/m2
11:31 77.4 °F /  25.2 °C 49.8 °F /  9.9 °C 30.27in /  1024.9hPa NNW 10.1mph /  16.3km/h 23.0mph /  37km/h 38% 0.00in /  0mm meteobridge W/m2
11:37 78.1 °F /  25.6 °C 50.4 °F /  10.2 °C 30.26in /  1024.6hPa NNE 10.1mph /  16.3km/h 18.0mph /  29km/h 38% 0.00in /  0mm meteobridge W/m2
11:43 78.1 °F /  25.6 °C 49.6 °F /  9.8 °C 30.25in /  1024.3hPa NNE 13.0mph /  20.9km/h 13.0mph /  20.9km/h 37% 0.00in /  0mm meteobridge W/m2
11:49 77.2 °F /  25.1 °C 49.6 °F /  9.8 °C 30.25in /  1024.3hPa NE 4.9mph /  7.9km/h 12.0mph /  19.3km/h 38% 0.00in /  0mm meteobridge W/m2
11:55 76.8 °F /  24.9 °C 49.3 °F /  9.6 °C 30.25in /  1024.3hPa North 14.1mph /  22.7km/h 16.0mph /  25.7km/h 38% 0.00in /  0mm meteobridge W/m2
12:01 78.3 °F /  25.7 °C 49.8 °F /  9.9 °C 30.25in /  1024.3hPa NNE 6.9mph /  11.1km/h 14.0mph /  22.5km/h 37% 0.00in /  0mm meteobridge W/m2
12:07 77.9 °F /  25.5 °C 49.5 °F /  9.7 °C 30.25in /  1024.3hPa NNE 6.9mph /  11.1km/h 10.0mph /  16.1km/h 37% 0.00in /  0mm meteobridge W/m2
12:13 76.5 °F /  24.7 °C 48.9 °F /  9.4 °C 30.25in /  1024.3hPa NE 4.9mph /  7.9km/h 6.0mph /  9.7km/h 38% 0.00in /  0mm meteobridge W/m2
12:20 77.5 °F /  25.3 °C 49.3 °F /  9.6 °C 30.24in /  1023.9hPa NNE 4.9mph /  7.9km/h 11.0mph /  17.7km/h 37% 0.00in /  0mm meteobridge W/m2
12:38 79.0 °F /  26.1 °C 48.9 °F /  9.4 °C 30.24in /  1023.9hPa East 2.9mph /  4.7km/h 9.0mph /  14.5km/h 35% 0.00in /  0mm meteobridge W/m2
12:44 79.7 °F /  26.5 °C 49.6 °F /  9.8 °C 30.23in /  1023.6hPa WSW 2.9mph /  4.7km/h 6.0mph /  9.7km/h 35% 0.00in /  0mm meteobridge W/m2
12:50 79.3 °F /  26.3 °C 49.3 °F /  9.6 °C 30.23in /  1023.6hPa NW 4.0mph /  6.4km/h 14.0mph /  22.5km/h 35% 0.00in /  0mm meteobridge W/m2
12:57 79.2 °F /  26.2 °C 49.1 °F /  9.5 °C 30.23in /  1023.6hPa SW 0.9mph /  1.4km/h 4.0mph /  6.4km/h 35% 0.00in /  0mm meteobridge W/m2
13:03 78.8 °F /  26 °C 49.6 °F /  9.8 °C 30.22in /  1023.2hPa North 6.0mph /  9.7km/h 12.0mph /  19.3km/h 36% 0.00in /  0mm meteobridge W/m2
13:09 79.2 °F /  26.2 °C 49.1 °F /  9.5 °C 30.22in /  1023.2hPa NNW 2.9mph /  4.7km/h 10.0mph /  16.1km/h 35% 0.00in /  0mm meteobridge W/m2
13:15 77.9 °F /  25.5 °C 48.7 °F /  9.3 °C 30.22in /  1023.2hPa NNE 0.9mph /  1.4km/h 6.0mph /  9.7km/h 36% 0.00in /  0mm meteobridge W/m2
13:21 77.4 °F /  25.2 °C 48.4 °F /  9.1 °C 30.22in /  1023.2hPa Calm   5.0mph /  8km/h 36% 0.00in /  0mm meteobridge W/m2
13:27 78.6 °F /  25.9 °C 49.5 °F /  9.7 °C 30.21in /  1022.9hPa South 6.0mph /  9.7km/h 7.0mph /  11.3km/h 36% 0.00in /  0mm meteobridge W/m2
13:33 80.2 °F /  26.8 °C 49.3 °F /  9.6 °C 30.21in /  1022.9hPa NE 4.9mph /  7.9km/h 10.0mph /  16.1km/h 34% 0.00in /  0mm meteobridge W/m2
13:39 82.8 °F /  28.2 °C 50.7 °F /  10.4 °C 30.21in /  1022.9hPa ENE 6.9mph /  11.1km/h 7.0mph /  11.3km/h 33% 0.00in /  0mm meteobridge W/m2
13:45 82.6 °F /  28.1 °C 49.8 °F /  9.9 °C 30.21in /  1022.9hPa ENE 2.9mph /  4.7km/h 8.0mph /  12.9km/h 32% 0.00in /  0mm meteobridge W/m2
13:51 84.0 °F /  28.9 °C 50.2 °F /  10.1 °C 30.21in /  1022.9hPa NE 2.0mph /  3.2km/h 10.0mph /  16.1km/h 31% 0.00in /  0mm meteobridge W/m2
13:58 81.7 °F /  27.6 °C 48.9 °F /  9.4 °C 30.20in /  1022.6hPa North 6.0mph /  9.7km/h 11.0mph /  17.7km/h 32% 0.00in /  0mm meteobridge W/m2
14:04 79.3 °F /  26.3 °C 47.7 °F /  8.7 °C 30.20in /  1022.6hPa East 2.0mph /  3.2km/h 4.0mph /  6.4km/h 33% 0.00in /  0mm meteobridge W/m2
14:10 79.3 °F /  26.3 °C 50.0 °F /  10 °C 30.20in /  1022.6hPa NE 6.9mph /  11.1km/h 8.0mph /  12.9km/h 36% 0.00in /  0mm meteobridge W/m2
14:16 78.6 °F /  25.9 °C 50.2 °F /  10.1 °C 30.20in /  1022.6hPa NE 13.0mph /  20.9km/h 13.0mph /  20.9km/h 37% 0.00in /  0mm meteobridge W/m2
14:22 77.7 °F /  25.4 °C 49.5 °F /  9.7 °C 30.20in /  1022.6hPa NE 4.9mph /  7.9km/h 12.0mph /  19.3km/h 37% 0.00in /  0mm meteobridge W/m2
14:28 77.2 °F /  25.1 °C 53.6 °F /  12 °C 30.19in /  1022.2hPa NE 2.0mph /  3.2km/h 5.0mph /  8km/h 44% 0.00in /  0mm meteobridge W/m2
14:34 75.6 °F /  24.2 °C 52.7 °F /  11.5 °C 30.20in /  1022.6hPa SSE 4.9mph /  7.9km/h 10.0mph /  16.1km/h 45% 0.00in /  0mm meteobridge W/m2
14:40 73.2 °F /  22.9 °C 52.3 °F /  11.3 °C 30.20in /  1022.6hPa South 2.9mph /  4.7km/h 7.0mph /  11.3km/h 48% 0.00in /  0mm meteobridge W/m2
14:47 72.7 °F /  22.6 °C 52.9 °F /  11.6 °C 30.19in /  1022.2hPa SSW 2.0mph /  3.2km/h 3.0mph /  4.8km/h 50% 0.00in /  0mm meteobridge W/m2
14:53 73.2 °F /  22.9 °C 53.4 °F /  11.9 °C 30.19in /  1022.2hPa SSW 0.9mph /  1.4km/h 3.0mph /  4.8km/h 50% 0.00in /  0mm meteobridge W/m2
14:59 73.8 °F /  23.2 °C 52.9 °F /  11.6 °C 30.19in /  1022.2hPa SSW 0.9mph /  1.4km/h 3.0mph /  4.8km/h 48% 0.00in /  0mm meteobridge W/m2
15:05 74.5 °F /  23.6 °C 51.8 °F /  11 °C 30.18in /  1021.9hPa South 4.0mph /  6.4km/h 6.0mph /  9.7km/h 45% 0.00in /  0mm meteobridge W/m2
15:11 75.4 °F /  24.1 °C 51.3 °F /  10.7 °C 30.17in /  1021.6hPa Calm   2.0mph /  3.2km/h 43% 0.00in /  0mm meteobridge W/m2
15:17 76.5 °F /  24.7 °C 51.1 °F /  10.6 °C 30.17in /  1021.6hPa South 2.9mph /  4.7km/h 4.0mph /  6.4km/h 41% 0.00in /  0mm meteobridge W/m2
15:23 77.9 °F /  25.5 °C 50.9 °F /  10.5 °C 30.17in /  1021.6hPa South 4.9mph /  7.9km/h 7.0mph /  11.3km/h 39% 0.00in /  0mm meteobridge W/m2
15:42 78.6 °F /  25.9 °C 44.6 °F /  7 °C 30.17in /  1021.6hPa SSW 4.0mph /  6.4km/h 8.0mph /  12.9km/h 30% 0.00in /  0mm meteobridge W/m2
15:48 77.7 °F /  25.4 °C 45.5 °F /  7.5 °C 30.16in /  1021.2hPa SSW 4.0mph /  6.4km/h 9.0mph /  14.5km/h 32% 0.00in /  0mm meteobridge W/m2
16:00 79.0 °F /  26.1 °C 46.6 °F /  8.1 °C 30.16in /  1021.2hPa South 4.9mph /  7.9km/h 10.0mph /  16.1km/h 32% 0.00in /  0mm meteobridge W/m2
16:06 80.8 °F /  27.1 °C 48.9 °F /  9.4 °C 30.16in /  1021.2hPa South 4.0mph /  6.4km/h 7.0mph /  11.3km/h 33% 0.00in /  0mm meteobridge W/m2
16:12 83.1 °F /  28.4 °C 47.7 °F /  8.7 °C 30.15in /  1020.9hPa South 4.0mph /  6.4km/h 11.0mph /  17.7km/h 29% 0.00in /  0mm meteobridge W/m2
16:18 82.8 °F /  28.2 °C 47.3 °F /  8.5 °C 30.15in /  1020.9hPa SE 6.0mph /  9.7km/h 9.0mph /  14.5km/h 29% 0.00in /  0mm meteobridge W/m2
16:24 81.3 °F /  27.4 °C 47.8 °F /  8.8 °C 30.14in /  1020.5hPa South 4.0mph /  6.4km/h 9.0mph /  14.5km/h 31% 0.00in /  0mm meteobridge W/m2
16:37 78.6 °F /  25.9 °C 49.5 °F /  9.7 °C 30.15in /  1020.9hPa North 6.0mph /  9.7km/h 12.0mph /  19.3km/h 36% 0.00in /  0mm meteobridge W/m2
16:43 79.7 °F /  26.5 °C 50.4 °F /  10.2 °C 30.15in /  1020.9hPa East 10.1mph /  16.3km/h 10.1mph /  16.3km/h 36% 0.00in /  0mm meteobridge W/m2
16:49 80.2 °F /  26.8 °C 49.3 °F /  9.6 °C 30.14in /  1020.5hPa NNE 4.0mph /  6.4km/h 19.0mph /  30.6km/h 34% 0.00in /  0mm meteobridge W/m2
16:55 80.2 °F /  26.8 °C 48.6 °F /  9.2 °C 30.15in /  1020.9hPa East 4.9mph /  7.9km/h 18.0mph /  29km/h 33% 0.00in /  0mm meteobridge W/m2
17:01 80.1 °F /  26.7 °C 49.1 °F /  9.5 °C 30.15in /  1020.9hPa East 6.9mph /  11.1km/h 13.0mph /  20.9km/h 34% 0.00in /  0mm meteobridge W/m2
17:07 77.2 °F /  25.1 °C 47.5 °F /  8.6 °C 30.16in /  1021.2hPa North 6.0mph /  9.7km/h 19.0mph /  30.6km/h 35% 0.00in /  0mm meteobridge W/m2
17:13 75.7 °F /  24.3 °C 47.7 °F /  8.7 °C 30.15in /  1020.9hPa NNE 12.1mph /  19.5km/h 13.0mph /  20.9km/h 37% 0.00in /  0mm meteobridge W/m2
17:25 74.7 °F /  23.7 °C 48.0 °F /  8.9 °C 30.15in /  1020.9hPa NE 6.9mph /  11.1km/h 15.0mph /  24.1km/h 39% 0.00in /  0mm meteobridge W/m2
17:31 75.0 °F /  23.9 °C 48.4 °F /  9.1 °C 30.15in /  1020.9hPa NNE 10.1mph /  16.3km/h 14.0mph /  22.5km/h 39% 0.00in /  0mm meteobridge W/m2
17:37 75.4 °F /  24.1 °C 48.0 °F /  8.9 °C 30.15in /  1020.9hPa NE 12.1mph /  19.5km/h 16.0mph /  25.7km/h 38% 0.00in /  0mm meteobridge W/m2
17:43 74.5 °F /  23.6 °C 47.1 °F /  8.4 °C 30.16in /  1021.2hPa NNE 8.1mph /  13km/h 16.0mph /  25.7km/h 38% 0.00in /  0mm meteobridge W/m2
17:49 73.6 °F /  23.1 °C 46.4 °F /  8 °C 30.16in /  1021.2hPa NNE 8.1mph /  13km/h 17.0mph /  27.4km/h 38% 0.00in /  0mm meteobridge W/m2
17:56 73.2 °F /  22.9 °C 46.0 °F /  7.8 °C 30.17in /  1021.6hPa North 6.9mph /  11.1km/h 11.0mph /  17.7km/h 38% 0.00in /  0mm meteobridge W/m2
18:02 73.2 °F /  22.9 °C 46.0 °F /  7.8 °C 30.18in /  1021.9hPa NNE 10.1mph /  16.3km/h 10.1mph /  16.3km/h 38% 0.00in /  0mm meteobridge W/m2
18:08 73.2 °F /  22.9 °C 49.5 °F /  9.7 °C 30.18in /  1021.9hPa NNW 8.9mph /  14.3km/h 18.0mph /  29km/h 43% 0.00in /  0mm meteobridge W/m2
18:20 69.1 °F /  20.6 °C 50.7 °F /  10.4 °C 30.19in /  1022.2hPa North 17.0mph /  27.4km/h 25.0mph /  40.2km/h 52% 0.00in /  0mm meteobridge W/m2
18:33 68.7 °F /  20.4 °C 50.9 °F /  10.5 °C 30.19in /  1022.2hPa NNE 19.9mph /  32km/h -999.0mph /  -1607.7km/h 53% 0.00in /  0mm meteobridge W/m2
18:39 68.7 °F /  20.4 °C 50.9 °F /  10.5 °C 30.17in /  1021.6hPa North -999.9mph /  -1609.1km/h -999.0mph /  -1607.7km/h 53% 0.00in /  0mm meteobridge W/m2
Regenstein, Windhoek, Namibia
Compliments of Weather Underground - 2.5 mb